createdAt,value
2023-10-23T00:01:21.612Z,4.90
2023-10-23T00:03:52.048Z,2.88
2023-10-23T00:06:22.426Z,3.63
2023-10-23T00:08:52.622Z,2.63
2023-10-23T00:11:29.729Z,4.72
2023-10-23T00:13:59.928Z,2.08
2023-10-23T00:16:30.117Z,3.27
2023-10-23T00:19:00.341Z,2.87
2023-10-23T00:21:31.146Z,3.20
2023-10-23T00:24:01.368Z,2.50
2023-10-23T00:26:34.221Z,2.17
2023-10-23T00:29:04.751Z,2.65
2023-10-23T00:31:35.180Z,2.35
2023-10-23T00:34:05.477Z,2.88
2023-10-23T00:36:35.769Z,3.40
2023-10-23T00:39:06.065Z,3.17
2023-10-23T00:41:39.141Z,3.80
2023-10-23T00:44:09.426Z,2.47
2023-10-23T00:46:40.247Z,2.93
2023-10-23T00:49:12.138Z,3.55
2023-10-23T00:51:42.744Z,3.47
2023-10-23T00:54:13.492Z,1.85
2023-10-23T00:56:46.423Z,2.88
2023-10-23T00:59:17.652Z,1.83
2023-10-23T01:01:48.892Z,2.13
2023-10-23T01:04:19.873Z,2.17
2023-10-23T01:06:51.596Z,3.65
2023-10-23T01:09:22.111Z,1.90
2023-10-23T01:11:54.882Z,2.28
2023-10-23T01:14:25.201Z,2.65
2023-10-23T01:16:55.444Z,2.27
2023-10-23T01:19:25.952Z,2.25
2023-10-23T01:21:56.258Z,2.08
2023-10-23T01:24:29.358Z,1.43
2023-10-23T01:27:02.401Z,2.03
2023-10-23T01:29:32.600Z,1.75
2023-10-23T01:32:02.921Z,1.77
2023-10-23T01:34:33.133Z,1.50
2023-10-23T01:37:03.472Z,2.22
2023-10-23T01:39:33.766Z,1.70
2023-10-23T01:42:06.706Z,2.80
2023-10-23T01:44:36.912Z,1.75
2023-10-23T01:47:07.208Z,1.20
2023-10-23T01:49:37.340Z,1.30
2023-10-23T01:52:07.760Z,2.20
2023-10-23T01:54:38.126Z,1.55
2023-10-23T01:57:11.285Z,1.77
2023-10-23T01:59:41.527Z,2.33
2023-10-23T02:02:11.725Z,2.47
2023-10-23T02:04:42.287Z,1.75
2023-10-23T02:07:12.512Z,2.42
2023-10-23T02:09:42.725Z,1.50
2023-10-23T02:12:15.545Z,2.10
2023-10-23T02:14:45.722Z,1.77
2023-10-23T02:17:15.916Z,1.75
2023-10-23T02:22:16.461Z,1.83
2023-10-23T02:24:46.662Z,1.30
2023-10-23T02:27:21.359Z,1.50
2023-10-23T02:29:51.604Z,3.22
2023-10-23T02:32:21.790Z,1.60
2023-10-23T02:34:52.209Z,1.20
2023-10-23T02:37:22.897Z,1.65
2023-10-23T02:39:53.556Z,1.15
2023-10-23T02:42:26.506Z,1.58
2023-10-23T02:44:56.793Z,1.15
2023-10-23T02:47:27.322Z,1.10
2023-10-23T02:49:57.655Z,1.23
2023-10-23T02:52:27.861Z,1.20
2023-10-23T02:54:58.122Z,1.38
2023-10-23T02:57:30.964Z,1.70
2023-10-23T03:00:01.139Z,1.20
2023-10-23T03:02:31.390Z,1.25
2023-10-23T03:05:01.706Z,2.57
2023-10-23T03:07:31.911Z,1.17
2023-10-23T03:10:02.077Z,1.63
2023-10-23T03:12:35.060Z,1.10
2023-10-23T03:15:06.436Z,1.45
2023-10-23T03:17:36.666Z,1.50
2023-10-23T03:20:07.993Z,1.10
2023-10-23T03:22:38.183Z,2.13
2023-10-23T03:25:09.455Z,1.38
2023-10-23T03:27:42.978Z,1.48
2023-10-23T03:30:14.414Z,1.15
2023-10-23T03:32:44.621Z,1.60
2023-10-23T03:35:15.171Z,2.40
2023-10-23T03:37:45.318Z,1.30
2023-10-23T03:40:16.519Z,2.67
2023-10-23T03:42:49.323Z,1.38
2023-10-23T03:45:19.711Z,1.15
2023-10-23T03:47:50.002Z,1.27
2023-10-23T03:50:20.270Z,1.87
2023-10-23T03:52:50.425Z,1.50
2023-10-23T03:55:20.628Z,3.35
2023-10-23T03:57:53.998Z,1.10
2023-10-23T04:00:24.391Z,1.00
2023-10-23T04:02:54.597Z,1.13
2023-10-23T04:05:25.018Z,1.08
2023-10-23T04:07:55.189Z,1.40
2023-10-23T04:10:25.354Z,1.20
2023-10-23T04:12:59.447Z,1.88
2023-10-23T04:15:29.719Z,1.83
2023-10-23T04:18:00.014Z,1.30
2023-10-23T04:20:30.634Z,1.03
2023-10-23T04:23:00.763Z,1.58
2023-10-23T04:25:30.938Z,1.30
2023-10-23T04:28:04.921Z,1.08
2023-10-23T04:30:35.259Z,1.10
2023-10-23T04:33:05.492Z,0.70
2023-10-23T04:35:36.564Z,1.20
2023-10-23T04:40:36.937Z,1.10
2023-10-23T04:43:09.716Z,3.07
2023-10-23T04:45:40.022Z,1.50
2023-10-23T04:48:10.841Z,2.65
2023-10-23T04:50:42.518Z,1.23
2023-10-23T04:53:12.692Z,1.38
2023-10-23T04:55:44.005Z,1.20
2023-10-23T04:58:16.882Z,1.42
2023-10-23T05:00:47.166Z,1.15
2023-10-23T05:03:17.412Z,1.10
2023-10-23T05:05:52.756Z,1.40
2023-10-23T05:08:22.932Z,0.80
2023-10-23T05:10:53.118Z,0.90
2023-10-23T05:13:26.795Z,1.13
2023-10-23T05:15:57.019Z,1.00
2023-10-23T05:18:27.298Z,1.13
2023-10-23T05:20:57.524Z,1.33
2023-10-23T05:23:27.807Z,1.05
2023-10-23T05:25:57.949Z,1.10
2023-10-23T05:28:30.848Z,1.25
2023-10-23T05:31:01.105Z,0.70
2023-10-23T05:33:31.301Z,1.13
2023-10-23T05:36:09.846Z,1.10
2023-10-23T05:38:40.604Z,2.88
2023-10-23T05:41:11.496Z,0.98
2023-10-23T05:43:45.556Z,2.97
2023-10-23T05:46:16.875Z,2.47
2023-10-23T05:48:47.187Z,2.22
2023-10-23T05:51:17.385Z,1.20
2023-10-23T05:53:47.786Z,3.15
2023-10-23T05:56:18.015Z,1.52
2023-10-23T05:58:52.291Z,2.53
2023-10-23T06:01:22.717Z,3.35
2023-10-23T06:03:54.546Z,3.65
2023-10-23T06:06:25.050Z,2.08
2023-10-23T06:08:55.443Z,3.00
2023-10-23T06:11:25.733Z,1.80
2023-10-23T06:13:58.630Z,2.30
2023-10-23T06:16:28.904Z,1.60
2023-10-23T06:18:59.351Z,2.08
2023-10-23T06:21:29.601Z,1.33
2023-10-23T06:24:00.104Z,3.03
2023-10-23T06:26:31.823Z,1.50
2023-10-23T06:29:04.888Z,1.40
2023-10-23T06:31:35.106Z,1.63
2023-10-23T06:34:05.624Z,2.63
2023-10-23T06:36:36.960Z,1.00
2023-10-23T06:39:07.455Z,12.02
2023-10-23T06:41:37.725Z,7.40
2023-10-23T06:44:11.217Z,3.70
2023-10-23T06:46:42.168Z,8.38
2023-10-23T06:49:12.603Z,3.53
2023-10-23T06:51:43.157Z,2.90
2023-10-23T06:54:13.535Z,3.10
2023-10-23T06:56:43.998Z,4.80
2023-10-23T06:59:16.922Z,3.72
2023-10-23T07:01:47.449Z,4.07
2023-10-23T07:04:18.091Z,3.30
2023-10-23T07:06:48.893Z,4.57
2023-10-23T07:09:20.516Z,2.13
2023-10-23T07:11:51.925Z,1.90
2023-10-23T07:14:25.377Z,1.17
2023-10-23T07:16:56.308Z,3.90
2023-10-23T07:19:26.977Z,4.93
2023-10-23T07:21:57.671Z,7.00
2023-10-23T07:24:28.177Z,2.08
2023-10-23T07:26:58.829Z,3.47
2023-10-23T07:29:33.662Z,1.95
2023-10-23T07:32:05.289Z,3.30
2023-10-23T07:34:35.810Z,8.32
2023-10-23T07:37:07.025Z,8.38
2023-10-23T07:39:37.971Z,1.55
2023-10-23T07:44:43.340Z,3.47
2023-10-23T07:47:13.956Z,4.95
2023-10-23T07:49:44.459Z,6.32
2023-10-23T07:52:15.188Z,1.90
2023-10-23T07:54:45.866Z,3.08
2023-10-23T07:57:16.543Z,3.83
2023-10-23T07:59:50.501Z,2.22
2023-10-23T08:02:21.958Z,3.88
2023-10-23T08:04:52.923Z,3.83
2023-10-23T08:07:23.340Z,4.00
2023-10-23T08:09:54.184Z,4.00
2023-10-23T08:12:24.904Z,7.05
2023-10-23T08:14:58.705Z,7.53
2023-10-23T08:17:41.484Z,5.55
2023-10-23T08:20:13.682Z,7.30
2023-10-23T08:22:44.087Z,9.57
2023-10-23T08:25:14.567Z,4.63
2023-10-23T08:27:45.241Z,5.88
2023-10-23T08:30:18.628Z,9.05
2023-10-23T08:32:52.845Z,10.48
2023-10-23T08:35:27.111Z,15.57
2023-10-23T08:37:57.583Z,11.40
2023-10-23T08:40:28.164Z,13.95
2023-10-23T08:42:58.738Z,10.20
2023-10-23T08:45:32.137Z,8.98
2023-10-23T08:48:02.673Z,8.27
2023-10-23T08:50:34.910Z,4.25
2023-10-23T08:53:11.580Z,7.20
2023-10-23T08:55:42.400Z,4.78
2023-10-23T08:58:17.734Z,6.13
2023-10-23T09:00:51.622Z,13.23
2023-10-23T09:04:04.119Z,4.18
2023-10-23T09:06:15.132Z,11.07
2023-10-23T09:08:45.941Z,3.63
2023-10-23T09:11:17.687Z,4.43
2023-10-23T09:13:48.507Z,8.38
2023-10-23T09:16:21.730Z,5.75
2023-10-23T09:18:54.852Z,7.00
2023-10-23T09:21:25.632Z,4.28
2023-10-23T09:23:57.852Z,5.03
2023-10-23T09:26:28.762Z,6.15
2023-10-23T09:28:59.422Z,7.53
2023-10-23T09:31:33.135Z,13.35
2023-10-23T09:34:05.549Z,9.43
2023-10-23T09:36:37.021Z,8.82
2023-10-23T09:39:08.170Z,11.15
2023-10-23T09:41:39.205Z,3.92
2023-10-23T09:44:11.563Z,7.32
2023-10-23T09:46:45.613Z,23.92
2023-10-23T09:49:16.199Z,19.42
2023-10-23T09:51:52.735Z,16.80
2023-10-23T09:54:24.040Z,11.25
2023-10-23T09:56:56.694Z,10.55
2023-10-23T09:59:31.731Z,6.93
2023-10-23T10:02:07.483Z,16.55
2023-10-23T10:04:47.095Z,14.82
2023-10-23T10:07:26.128Z,15.85
2023-10-23T10:09:57.837Z,16.80
2023-10-23T10:12:30.304Z,11.35
2023-10-23T10:15:01.821Z,21.65
2023-10-23T10:17:37.234Z,15.82
2023-10-23T10:20:09.654Z,7.60
2023-10-23T10:22:42.785Z,10.02
2023-10-23T10:25:14.647Z,12.82
2023-10-23T10:27:45.109Z,30.00
2023-10-23T10:30:43.757Z,51.45
2023-10-23T10:34:18.385Z,62.63
2023-10-23T10:36:16.557Z,67.25
2023-10-23T10:39:07.360Z,70.68
2023-10-23T10:41:39.615Z,84.30
2023-10-23T10:44:14.949Z,89.57
2023-10-23T10:46:48.968Z,91.53
2023-10-23T10:49:25.826Z,96.53
2023-10-23T10:51:56.615Z,99.78
2023-10-23T10:54:27.299Z,89.00
2023-10-23T10:56:58.209Z,85.13
2023-10-23T10:59:31.253Z,80.15
2023-10-23T11:02:01.749Z,82.93
2023-10-23T11:04:38.568Z,78.38
2023-10-23T11:07:12.018Z,74.25
2023-10-23T11:09:43.088Z,73.18
2023-10-23T11:14:44.429Z,60.75
2023-10-23T11:17:15.553Z,55.88
2023-10-23T11:22:23.397Z,43.42
2023-10-23T11:24:54.308Z,42.65
2023-10-23T11:27:25.106Z,35.85
2023-10-23T11:29:56.505Z,35.05
2023-10-23T11:32:27.130Z,30.05
2023-10-23T11:35:05.355Z,28.48
2023-10-23T11:37:42.241Z,29.42
2023-10-23T11:40:15.136Z,25.55
2023-10-23T11:42:47.647Z,25.08
2023-10-23T11:45:19.584Z,24.30
2023-10-23T11:47:50.366Z,22.45
2023-10-23T11:50:24.168Z,23.83
2023-10-23T11:52:54.511Z,20.15
2023-10-23T11:55:25.487Z,16.37
2023-10-23T11:57:56.505Z,18.75
2023-10-23T12:00:28.840Z,16.48
2023-10-23T12:02:59.800Z,15.60
2023-10-23T12:08:04.983Z,12.18
2023-10-23T12:10:39.690Z,10.00
2023-10-23T12:13:10.785Z,9.80
2023-10-23T12:18:11.947Z,12.52
2023-10-23T12:20:45.274Z,15.57
2023-10-23T12:23:16.010Z,8.77
2023-10-23T12:25:46.385Z,13.50
2023-10-23T12:28:16.831Z,14.38
2023-10-23T12:30:47.270Z,17.85
2023-10-23T12:33:22.665Z,13.85
2023-10-23T12:35:58.550Z,15.23
2023-10-23T12:38:29.878Z,8.65
2023-10-23T12:41:01.308Z,10.45
2023-10-23T12:43:31.883Z,13.15
2023-10-23T12:46:02.460Z,17.52
2023-10-23T12:48:33.061Z,21.92
2023-10-23T12:51:06.069Z,31.70
2023-10-23T12:53:36.324Z,17.77
2023-10-23T12:56:06.734Z,78.23
2023-10-23T12:58:37.588Z,57.60
2023-10-23T13:01:08.523Z,29.38
2023-10-23T13:03:39.050Z,19.98
2023-10-23T13:06:12.441Z,13.88
2023-10-23T13:08:44.659Z,17.83
2023-10-23T13:11:15.066Z,18.52
2023-10-23T13:13:45.735Z,16.73
2023-10-23T13:16:16.294Z,8.93
2023-10-23T13:18:53.226Z,36.25
2023-10-23T13:21:33.123Z,18.05
2023-10-23T13:24:06.539Z,16.80
2023-10-23T13:26:39.016Z,44.63
2023-10-23T13:29:09.992Z,13.50
2023-10-23T13:31:40.623Z,17.30
2023-10-23T13:34:11.360Z,11.45
2023-10-23T13:36:45.645Z,8.15
2023-10-23T13:39:17.522Z,5.32
2023-10-23T13:41:48.107Z,7.55
2023-10-23T13:44:18.883Z,4.50
2023-10-23T13:46:49.352Z,4.47
2023-10-23T13:49:20.048Z,4.45
2023-10-23T13:51:53.500Z,7.45
2023-10-23T13:54:25.285Z,3.47
2023-10-23T13:56:55.800Z,4.43
2023-10-23T13:59:26.961Z,5.28
2023-10-23T14:04:28.359Z,4.77
2023-10-23T14:07:01.816Z,6.78
2023-10-23T14:09:42.372Z,7.90
2023-10-23T14:12:16.407Z,8.90
2023-10-23T14:14:47.096Z,21.38
2023-10-23T14:17:17.532Z,11.23
2023-10-23T14:19:49.198Z,4.68
2023-10-23T14:22:22.619Z,5.93
2023-10-23T14:24:53.050Z,8.32
2023-10-23T14:27:23.531Z,6.75
2023-10-23T14:29:53.870Z,18.75
2023-10-23T14:32:24.571Z,8.37
2023-10-23T14:34:55.578Z,7.93
2023-10-23T14:37:29.013Z,14.48
2023-10-23T14:39:59.739Z,16.10
2023-10-23T14:42:30.416Z,6.25
2023-10-23T14:45:02.004Z,6.00
2023-10-23T14:47:32.527Z,7.47
2023-10-23T14:50:05.125Z,8.38
2023-10-23T14:52:38.354Z,3.60
2023-10-23T14:55:10.339Z,10.85
2023-10-23T14:57:40.872Z,4.70
2023-10-23T15:00:13.630Z,4.32
2023-10-23T15:02:44.096Z,10.30
2023-10-23T15:05:14.584Z,5.72
2023-10-23T15:07:47.601Z,4.55
2023-10-23T15:10:21.713Z,4.32
2023-10-23T15:12:52.605Z,4.07
2023-10-23T15:15:25.620Z,2.55
2023-10-23T15:17:56.306Z,5.38
2023-10-23T15:20:30.864Z,4.03
2023-10-23T15:23:04.661Z,3.17
2023-10-23T15:25:35.494Z,3.72
2023-10-23T15:30:37.640Z,4.05
2023-10-23T15:33:09.486Z,2.25
2023-10-23T15:35:40.090Z,8.43
2023-10-23T15:38:13.169Z,4.68
2023-10-23T15:40:43.936Z,4.13
2023-10-23T15:43:14.531Z,6.35
2023-10-23T15:45:47.163Z,2.50
2023-10-23T15:48:17.546Z,2.17
2023-10-23T15:50:48.079Z,3.92
2023-10-23T15:53:21.673Z,2.92
2023-10-23T15:55:52.139Z,3.83
2023-10-23T15:58:24.005Z,1.48
2023-10-23T16:00:55.382Z,3.55
2023-10-23T16:03:26.127Z,3.13
2023-10-23T16:05:56.901Z,6.00
2023-10-23T16:08:29.969Z,10.35
2023-10-23T16:11:00.437Z,12.13
2023-10-23T16:13:38.282Z,12.88
2023-10-23T16:16:14.555Z,15.30
2023-10-23T16:18:47.984Z,17.17
2023-10-23T16:23:51.999Z,6.97
2023-10-23T16:26:22.680Z,9.38
2023-10-23T16:28:53.510Z,9.07
2023-10-23T16:31:24.075Z,8.45
2023-10-23T16:33:54.526Z,4.97
2023-10-23T16:36:25.290Z,9.80
2023-10-23T16:38:58.373Z,12.07
2023-10-23T16:41:28.684Z,11.30
2023-10-23T16:43:59.160Z,7.07
2023-10-23T16:46:29.767Z,13.52
2023-10-23T16:49:00.215Z,13.93
2023-10-23T16:51:30.696Z,17.58
2023-10-23T16:54:03.873Z,11.23
2023-10-23T16:56:34.269Z,13.38
2023-10-23T16:59:05.345Z,8.95
2023-10-23T17:04:07.887Z,7.50
2023-10-23T17:06:40.099Z,7.72
2023-10-23T17:09:13.922Z,12.45
2023-10-23T17:11:45.641Z,10.95
2023-10-23T17:14:16.273Z,9.40
2023-10-23T17:16:46.939Z,18.42
2023-10-23T17:19:19.008Z,14.90
2023-10-23T17:21:49.407Z,11.00
2023-10-23T17:24:22.457Z,19.02
2023-10-23T17:26:52.897Z,13.15
2023-10-23T17:29:25.483Z,10.18
2023-10-23T17:31:56.592Z,15.95
2023-10-23T17:34:30.469Z,21.58
2023-10-23T17:37:01.445Z,27.10
2023-10-23T17:39:38.733Z,14.15
2023-10-23T17:42:09.988Z,13.90
2023-10-23T17:47:10.598Z,14.15
2023-10-23T17:49:41.292Z,11.40
2023-10-23T17:52:11.806Z,10.77
2023-10-23T17:54:46.679Z,19.27
2023-10-23T17:57:21.138Z,14.05
2023-10-23T17:59:51.555Z,10.07
2023-10-23T18:02:22.407Z,14.85
2023-10-23T18:04:53.225Z,16.65
2023-10-23T18:07:23.934Z,11.55
2023-10-23T18:09:56.982Z,20.45
2023-10-23T18:12:38.038Z,12.60
2023-10-23T18:15:10.604Z,6.90
2023-10-23T18:17:41.733Z,3.65
2023-10-23T18:20:13.563Z,6.60
2023-10-23T18:22:44.465Z,6.80
2023-10-23T18:27:48.067Z,6.05
2023-10-23T18:30:18.776Z,10.15
2023-10-23T18:32:49.330Z,8.32
2023-10-23T18:35:19.991Z,3.40
2023-10-23T18:37:50.502Z,3.47
2023-10-23T18:40:23.700Z,3.78
2023-10-23T18:43:01.780Z,3.92
2023-10-23T18:45:32.856Z,4.53
2023-10-23T18:50:36.475Z,4.03
2023-10-23T18:55:41.137Z,3.88
2023-10-23T18:58:12.601Z,6.32
2023-10-23T19:00:43.140Z,8.63
2023-10-23T19:03:14.175Z,2.88
2023-10-23T19:05:45.337Z,5.40
2023-10-23T19:08:17.380Z,2.55
2023-10-23T19:10:51.217Z,7.65
2023-10-23T19:13:22.024Z,4.60
2023-10-23T19:16:03.794Z,2.28
2023-10-23T19:18:35.770Z,4.32
2023-10-23T19:21:10.625Z,1.52
2023-10-23T19:23:42.916Z,1.52
2023-10-23T19:26:19.439Z,2.83
2023-10-23T19:28:50.528Z,3.35
2023-10-23T19:31:27.488Z,4.43
2023-10-23T19:34:01.097Z,1.42
2023-10-23T19:36:37.633Z,1.13
2023-10-23T19:39:12.419Z,1.83
2023-10-23T19:41:52.529Z,3.42
2023-10-23T19:44:24.487Z,2.83
2023-10-23T19:46:56.320Z,2.75
2023-10-23T19:49:29.609Z,2.13
2023-10-23T19:52:02.058Z,1.20
2023-10-23T19:54:37.594Z,0.65
2023-10-23T19:59:48.033Z,1.42
2023-10-23T20:02:22.399Z,1.48
2023-10-23T20:04:54.878Z,3.28
2023-10-23T20:07:26.251Z,1.17
2023-10-23T20:09:58.031Z,3.83
2023-10-23T20:12:34.729Z,4.15
2023-10-23T20:15:05.859Z,3.03
2023-10-23T20:20:08.561Z,7.80
2023-10-23T20:22:41.264Z,5.70
2023-10-23T20:25:14.859Z,1.38
2023-10-23T20:27:48.453Z,4.90
2023-10-23T20:30:22.104Z,0.82
2023-10-23T20:32:54.033Z,3.67
2023-10-23T20:35:25.770Z,1.00
2023-10-23T20:38:00.810Z,3.88
2023-10-23T20:40:34.275Z,3.47
2023-10-23T20:43:08.796Z,1.92
2023-10-23T20:45:42.963Z,1.30
2023-10-23T20:48:15.918Z,2.17
2023-10-23T20:50:47.281Z,2.70
2023-10-23T20:53:18.915Z,1.95
2023-10-23T20:55:53.217Z,2.33
2023-10-23T20:58:28.350Z,1.42
2023-10-23T21:01:01.490Z,2.85
2023-10-23T21:03:33.074Z,8.38
2023-10-23T21:06:05.959Z,3.80
2023-10-23T21:08:39.317Z,5.68
2023-10-23T21:11:10.373Z,4.22
2023-10-23T21:16:14.140Z,7.70
2023-10-23T21:18:44.907Z,3.63
2023-10-23T21:21:15.859Z,2.88
2023-10-23T21:23:46.650Z,3.85
2023-10-23T21:26:17.950Z,3.15
2023-10-23T21:28:51.218Z,4.63
2023-10-23T21:31:22.117Z,4.43
2023-10-23T21:33:52.641Z,3.00
2023-10-23T21:36:23.049Z,4.53
2023-10-23T21:38:53.478Z,4.97
2023-10-23T21:41:24.305Z,3.30
2023-10-23T21:43:57.634Z,5.55
2023-10-23T21:46:28.285Z,6.90
2023-10-23T21:48:58.974Z,5.75
2023-10-23T21:51:29.531Z,3.08
2023-10-23T21:54:00.987Z,2.72
2023-10-23T21:57:16.126Z,3.95
2023-10-23T22:01:56.462Z,8.50
2023-10-23T22:04:28.032Z,2.35
2023-10-23T22:06:59.432Z,3.60
2023-10-23T22:09:30.543Z,4.53
2023-10-23T22:12:01.633Z,3.58
2023-10-23T22:14:35.585Z,3.33
2023-10-23T22:17:06.195Z,3.63
2023-10-23T22:19:36.838Z,2.88
2023-10-23T22:22:07.768Z,1.17
2023-10-23T22:24:38.347Z,1.85
2023-10-23T22:27:08.796Z,13.07
2023-10-23T22:29:42.118Z,2.97
2023-10-23T22:32:13.115Z,7.50
2023-10-23T22:38:00.338Z,5.15
2023-10-23T22:40:04.963Z,2.90
2023-10-23T22:42:35.655Z,2.25
2023-10-23T22:45:09.831Z,1.30
2023-10-23T22:47:40.162Z,4.03
2023-10-23T22:50:12.102Z,5.55
2023-10-23T22:52:43.346Z,2.90
2023-10-23T22:55:15.766Z,1.45
2023-10-23T22:57:49.804Z,2.78
2023-10-23T23:00:23.889Z,2.88
2023-10-23T23:02:55.661Z,1.77
2023-10-23T23:05:26.576Z,4.25
2023-10-23T23:08:02.209Z,1.50
2023-10-23T23:10:33.607Z,1.63
2023-10-23T23:13:05.171Z,2.55
2023-10-23T23:15:38.909Z,1.02
2023-10-23T23:18:11.498Z,1.27
2023-10-23T23:20:44.814Z,1.63
2023-10-23T23:23:15.146Z,1.55
2023-10-23T23:25:45.737Z,2.35
2023-10-23T23:28:17.403Z,3.63
2023-10-23T23:30:50.460Z,1.38
2023-10-23T23:33:20.792Z,1.95
2023-10-23T23:35:54.110Z,2.08
2023-10-23T23:38:24.423Z,1.83
2023-10-23T23:40:56.159Z,3.07
2023-10-23T23:43:26.544Z,1.05
2023-10-23T23:46:02.447Z,1.17
2023-10-23T23:48:32.835Z,1.90
2023-10-23T23:51:03.262Z,1.67
2023-10-23T23:53:33.552Z,1.42
2023-10-23T23:56:03.968Z,1.37
2023-10-23T23:58:34.241Z,1.50
